Time;durP1;ratioP1;P1;durP2;ratioP2;P2;SDS_P1;SDS_P2;PMS_P1;PMS_P2;Temp;Humidity;BMP_temperature;BMP_pressure;BME280_temperature;BME280_humidity;BME280_pressure;Samples;Min_cycle;Max_cycle;Signal;HPM_P1;HPM_P2
2023/04/15 00:02:01;;;;;;;23.70;8.40;;;;;;;12.52;100.00;97683.77;134618;1288;86344;-63
2023/04/15 00:05:04;;;;;;;;;;;;;;;12.45;100.00;97679.60;134731;1288;22517;-63
2023/04/15 00:08:06;;;;;;;22.30;8.60;;;;;;;12.41;100.00;97683.66;134722;1288;22534;-62
2023/04/15 00:11:09;;;;;;;25.90;9.50;;;;;;;12.43;100.00;97683.09;134729;1288;22530;-62
2023/04/15 00:14:12;;;;;;;28.00;9.00;;;;;;;12.37;100.00;97678.96;134709;1288;22533;-63
2023/04/15 00:17:14;;;;;;;23.10;8.20;;;;;;;12.34;100.00;97680.06;134711;1288;22534;-63
2023/04/15 00:20:16;;;;;;;23.10;8.40;;;;;;;12.37;100.00;97678.20;134725;1288;22563;-62
2023/04/15 00:23:19;;;;;;;19.20;7.10;;;;;;;12.47;100.00;97681.91;134689;1285;22556;-63
2023/04/15 00:26:21;;;;;;;20.60;7.00;;;;;;;12.36;100.00;97687.20;134699;1288;22537;-63
2023/04/15 00:29:24;;;;;;;22.10;7.60;;;;;;;12.32;100.00;97698.12;134707;1288;22650;-62
2023/04/15 00:32:26;;;;;;;22.90;8.00;;;;;;;12.34;100.00;97699.69;134706;1288;22543;-63
2023/04/15 00:35:31;;;;;;;22.00;7.50;;;;;;;12.29;100.00;97703.45;134724;1288;22644;-62
2023/04/15 00:38:33;;;;;;;21.20;6.60;;;;;;;12.24;100.00;97701.27;134717;1288;22548;-63
2023/04/15 00:41:38;;;;;;;22.70;7.20;;;;;;;12.25;100.00;97705.52;134716;1288;22540;-63
2023/04/15 00:44:41;;;;;;;21.00;7.10;;;;;;;12.25;100.00;97704.19;134706;1288;22560;-63
2023/04/15 00:47:43;;;;;;;21.40;6.60;;;;;;;12.22;100.00;97703.34;134712;1288;22551;-63
2023/04/15 00:50:46;;;;;;;20.60;7.20;;;;;;;12.23;100.00;97706.95;134741;1288;22550;-63
2023/04/15 00:53:48;;;;;;;21.80;6.80;;;;;;;12.27;100.00;97702.01;134717;1288;25958;-63
2023/04/15 00:56:50;;;;;;;21.10;6.80;;;;;;;12.24;100.00;97695.66;134703;1288;22545;-63
2023/04/15 00:59:53;;;;;;;;;;;;;;;12.31;100.00;97689.66;134742;1276;22527;-63
2023/04/15 01:02:55;;;;;;;19.40;6.20;;;;;;;12.31;100.00;97703.23;134714;1288;22553;-62
2023/04/15 01:05:58;;;;;;;;;;;;;;;12.31;100.00;97711.72;134719;1288;23269;-63
2023/04/15 01:09:01;;;;;;;19.80;6.50;;;;;;;12.35;100.00;97708.16;134705;1288;22564;-63
2023/04/15 01:12:03;;;;;;;20.10;6.40;;;;;;;12.34;100.00;97710.06;134713;1288;22562;-63
2023/04/15 01:15:06;;;;;;;20.40;6.90;;;;;;;12.37;100.00;97705.56;134712;1288;25437;-62
2023/04/15 01:18:09;;;;;;;20.30;6.70;;;;;;;12.36;100.00;97706.75;134732;1288;26653;-63
2023/04/15 01:21:12;;;;;;;22.40;7.10;;;;;;;12.42;100.00;97697.59;134708;1288;22536;-63
2023/04/15 01:24:15;;;;;;;20.70;6.90;;;;;;;12.45;100.00;97702.41;134711;1288;22544;-63
2023/04/15 01:27:18;;;;;;;23.70;7.30;;;;;;;12.42;100.00;97697.28;134698;1288;25353;-63
2023/04/15 01:30:20;;;;;;;21.50;6.50;;;;;;;12.43;100.00;97698.39;134682;1288;25300;-63
2023/04/15 01:33:23;;;;;;;;;;;;;;;12.43;100.00;97697.02;134743;1288;24244;-63
2023/04/15 01:36:25;;;;;;;20.70;6.60;;;;;;;12.35;100.00;97712.81;135340;1281;22537;-63
2023/04/15 01:39:27;;;;;;;22.10;7.30;;;;;;;12.44;100.00;97713.34;135365;1281;22703;-63
2023/04/15 01:42:30;;;;;;;21.20;6.90;;;;;;;12.50;100.00;97711.08;135366;1281;22549;-63
2023/04/15 01:45:32;;;;;;;20.60;6.70;;;;;;;12.55;100.00;97718.05;135381;1281;22747;-63
2023/04/15 01:48:35;;;;;;;19.60;6.20;;;;;;;12.52;100.00;97729.32;135329;1281;26515;-63
2023/04/15 01:51:37;;;;;;;20.10;6.70;;;;;;;12.51;100.00;97735.77;135316;1281;25278;-63
2023/04/15 01:54:40;;;;;;;20.00;6.00;;;;;;;12.46;100.00;97736.55;135337;1281;22536;-63
2023/04/15 01:57:43;;;;;;;21.90;6.30;;;;;;;12.36;100.00;97739.96;135333;1281;22531;-63
2023/04/15 02:00:45;;;;;;;18.20;5.90;;;;;;;12.40;100.00;97747.09;135325;1281;22524;-63
2023/04/15 02:03:47;;;;;;;17.80;6.10;;;;;;;12.41;100.00;97747.83;135334;1281;24373;-63
2023/04/15 02:06:50;;;;;;;20.70;5.90;;;;;;;12.37;100.00;97748.83;135354;1281;22530;-63
2023/04/15 02:09:52;;;;;;;20.90;6.50;;;;;;;12.24;100.00;97746.47;135359;1281;22687;-63
2023/04/15 02:12:55;;;;;;;19.30;6.50;;;;;;;12.07;100.00;97736.83;135380;1281;24345;-63
2023/04/15 02:15:58;;;;;;;19.80;6.30;;;;;;;12.01;100.00;97732.31;135303;1281;22548;-63
2023/04/15 02:19:00;;;;;;;21.00;6.90;;;;;;;12.09;100.00;97734.59;135367;1281;22554;-63
2023/04/15 02:22:03;;;;;;;18.30;5.60;;;;;;;12.09;100.00;97731.11;135360;1281;22541;-63
2023/04/15 02:25:05;;;;;;;19.30;5.80;;;;;;;12.15;100.00;97725.68;135370;1281;22544;-63
2023/04/15 02:28:08;;;;;;;20.00;6.00;;;;;;;12.13;100.00;97727.77;135320;1281;22561;-63
2023/04/15 02:31:10;;;;;;;19.60;6.30;;;;;;;12.13;100.00;97734.25;135338;1281;22533;-63
2023/04/15 02:34:13;;;;;;;20.30;6.60;;;;;;;12.06;100.00;97735.02;135333;1281;22547;-62
2023/04/15 02:37:16;;;;;;;;;;;;;;;12.07;100.00;97739.81;135330;1281;25252;-63
2023/04/15 02:40:18;;;;;;;20.20;6.20;;;;;;;12.05;100.00;97749.09;135360;1281;24277;-62
2023/04/15 02:43:20;;;;;;;21.80;6.40;;;;;;;12.00;100.00;97741.82;135364;1281;22542;-62
2023/04/15 02:46:23;;;;;;;17.30;5.30;;;;;;;11.94;100.00;97741.10;135319;1281;22615;-64
2023/04/15 02:49:25;;;;;;;22.10;5.90;;;;;;;11.90;100.00;97741.42;135327;1281;22539;-65
2023/04/15 02:52:27;;;;;;;17.10;5.40;;;;;;;11.85;100.00;97748.65;135337;1281;22585;-63
2023/04/15 02:55:30;;;;;;;18.30;5.70;;;;;;;11.90;100.00;97747.65;135343;1281;22547;-62
2023/04/15 02:58:33;;;;;;;18.20;5.60;;;;;;;11.92;100.00;97744.08;135297;1281;24247;-62
2023/04/15 03:01:36;;;;;;;18.30;5.60;;;;;;;11.83;100.00;97750.39;135284;1281;25435;-63
2023/04/15 03:04:38;;;;;;;18.10;6.10;;;;;;;11.77;100.00;97753.48;135329;1281;22530;-62
2023/04/15 03:07:41;;;;;;;20.20;6.70;;;;;;;11.88;100.00;97754.35;135329;1281;22608;-62
2023/04/15 03:10:43;;;;;;;21.70;6.50;;;;;;;11.87;100.00;97749.84;135300;1281;24420;-62
2023/04/15 03:13:46;;;;;;;18.10;5.70;;;;;;;11.84;100.00;97747.35;135301;1281;22546;-63
2023/04/15 03:16:49;;;;;;;21.80;6.30;;;;;;;11.82;100.00;97752.89;135326;1281;22529;-63
2023/04/15 03:19:51;;;;;;;19.20;5.90;;;;;;;11.79;100.00;97756.15;135325;1281;22536;-63
2023/04/15 03:22:54;;;;;;;17.50;5.40;;;;;;;11.77;100.00;97763.42;135324;1281;22540;-62
2023/04/15 03:25:57;;;;;;;17.30;5.90;;;;;;;11.66;100.00;97768.23;135328;1281;22533;-62
2023/04/15 03:28:59;;;;;;;21.70;6.40;;;;;;;11.68;100.00;97767.39;135274;1281;22533;-62
2023/04/15 03:32:02;;;;;;;20.00;6.50;;;;;;;11.64;100.00;97768.27;135308;1281;22531;-62
2023/04/15 03:35:04;;;;;;;18.30;5.60;;;;;;;11.70;100.00;97770.70;135319;1281;22544;-62
2023/04/15 03:38:06;;;;;;;18.00;5.60;;;;;;;11.68;100.00;97769.97;135326;1281;23913;-63
2023/04/15 03:41:09;;;;;;;20.90;6.40;;;;;;;11.65;100.00;97770.23;135343;1281;22534;-62
2023/04/15 03:44:11;;;;;;;20.00;5.50;;;;;;;11.62;100.00;97762.65;135317;1281;22542;-63
2023/04/15 03:47:14;;;;;;;18.70;6.30;;;;;;;11.47;100.00;97765.96;135310;1281;22540;-62
2023/04/15 03:50:16;;;;;;;19.90;6.40;;;;;;;11.50;100.00;97769.70;135267;1281;22546;-63
2023/04/15 03:53:18;;;;;;;18.40;6.30;;;;;;;11.53;100.00;97774.58;135279;1261;22550;-62
2023/04/15 03:56:21;;;;;;;19.40;5.90;;;;;;;11.64;100.00;97779.77;135308;1257;24227;-62
2023/04/15 03:59:23;;;;;;;18.20;5.60;;;;;;;11.61;100.00;97780.19;135316;1281;22555;-62
2023/04/15 04:02:26;;;;;;;17.50;5.70;;;;;;;11.67;100.00;97776.02;135285;1281;22577;-62
2023/04/15 04:05:29;;;;;;;18.20;5.60;;;;;;;11.77;100.00;97777.67;135303;1281;22548;-62
2023/04/15 04:08:31;;;;;;;;;;;;;;;11.84;100.00;97777.83;135310;1281;22522;-62
2023/04/15 04:11:34;;;;;;;18.30;6.10;;;;;;;11.81;100.00;97782.27;135307;1281;24247;-62
2023/04/15 04:14:36;;;;;;;18.00;5.90;;;;;;;11.83;100.00;97780.16;135285;1281;22530;-63
2023/04/15 04:17:39;;;;;;;24.70;7.80;;;;;;;11.72;100.00;97780.48;135283;1281;22541;-62
2023/04/15 04:20:41;;;;;;;19.40;6.40;;;;;;;11.68;100.00;97781.77;135311;1281;24621;-61
2023/04/15 04:23:44;;;;;;;17.10;5.50;;;;;;;11.70;100.00;97785.27;135283;1257;22537;-62
2023/04/15 04:26:46;;;;;;;19.00;5.30;;;;;;;11.69;100.00;97784.78;135264;1281;22554;-62
2023/04/15 04:29:49;;;;;;;;;;;;;;;11.69;100.00;97789.52;135297;1281;25468;-62
2023/04/15 04:32:51;;;;;;;19.10;6.00;;;;;;;11.72;100.00;97792.47;135285;1281;22527;-62
2023/04/15 04:35:53;;;;;;;19.00;6.10;;;;;;;11.82;100.00;97795.82;135309;1281;22550;-63
2023/04/15 04:38:56;;;;;;;18.20;5.60;;;;;;;11.81;100.00;97797.16;135312;1281;22548;-62
2023/04/15 04:41:58;;;;;;;18.40;5.10;;;;;;;11.85;100.00;97807.17;135356;1281;22539;-62
2023/04/15 04:45:01;;;;;;;17.90;5.20;;;;;;;11.80;100.00;97812.82;135326;1263;22966;-63
2023/04/15 04:48:05;;;;;;;15.30;4.90;;;;;;;11.73;100.00;97808.14;135243;1281;22529;-65
2023/04/15 04:51:08;;;;;;;17.00;5.10;;;;;;;11.80;100.00;97805.83;135299;1281;22545;-65
2023/04/15 04:54:10;;;;;;;14.70;4.30;;;;;;;11.94;100.00;97809.91;135286;1281;22543;-63
2023/04/15 04:57:13;;;;;;;15.60;4.40;;;;;;;11.97;100.00;97808.98;135288;1281;22539;-63
2023/04/15 05:00:15;;;;;;;13.20;4.10;;;;;;;11.93;100.00;97811.04;135294;1281;24278;-63
2023/04/15 05:03:18;;;;;;;13.90;4.10;;;;;;;11.89;100.00;97810.50;135337;1281;22607;-63
2023/04/15 05:06:20;;;;;;;14.60;4.40;;;;;;;11.85;100.00;97809.44;135298;1281;22538;-63
2023/04/15 05:09:23;;;;;;;13.30;4.10;;;;;;;11.88;100.00;97813.23;135288;1281;22523;-63
2023/04/15 05:12:25;;;;;;;12.20;3.80;;;;;;;11.92;100.00;97823.36;135332;1264;22551;-63
2023/04/15 05:15:28;;;;;;;11.40;3.90;;;;;;;11.90;100.00;97823.38;135287;1281;22540;-64
2023/04/15 05:18:30;;;;;;;15.20;3.80;;;;;;;12.00;100.00;97825.73;135287;1281;22561;-65
2023/04/15 05:21:32;;;;;;;14.80;4.00;;;;;;;11.97;100.00;97831.23;135327;1281;22530;-65
2023/04/15 05:24:35;;;;;;;13.20;3.60;;;;;;;11.97;100.00;97839.11;135268;1281;22544;-63
2023/04/15 05:27:37;;;;;;;12.50;3.70;;;;;;;11.94;100.00;97842.32;135269;1281;22539;-62
2023/04/15 05:30:40;;;;;;;11.40;3.30;;;;;;;12.02;100.00;97846.23;135266;1281;22632;-63
2023/04/15 05:33:42;;;;;;;9.20;2.90;;;;;;;12.02;100.00;97848.31;135342;1281;22533;-63
2023/04/15 05:36:44;;;;;;;14.60;3.00;;;;;;;11.97;100.00;97851.38;135300;1281;24348;-63
2023/04/15 05:39:47;;;;;;;10.90;3.10;;;;;;;12.01;100.00;97847.94;135260;1281;22533;-63
2023/04/15 05:42:50;;;;;;;;;;;;;;;11.95;100.00;97845.80;135356;1281;22512;-64
2023/04/15 05:45:52;;;;;;;;;;;;;;;11.95;100.00;97842.93;135336;1281;25408;-64
2023/04/15 05:48:54;;;;;;;9.40;2.90;;;;;;;11.99;100.00;97841.27;135277;1263;22573;-64
2023/04/15 05:51:57;;;;;;;9.60;2.90;;;;;;;12.04;100.00;97836.82;135266;1281;22527;-64
2023/04/15 05:54:59;;;;;;;11.50;2.90;;;;;;;12.17;99.96;97834.67;135334;1281;22536;-64
2023/04/15 05:58:02;;;;;;;;;;;;;;;12.18;99.63;97836.71;135294;1281;24268;-63
2023/04/15 06:01:04;;;;;;;8.20;2.60;;;;;;;12.21;99.47;97830.27;135296;1281;22580;-63
2023/04/15 06:04:07;;;;;;;9.60;2.70;;;;;;;12.27;99.31;97831.60;135290;1281;24246;-64
2023/04/15 06:07:09;;;;;;;10.30;2.80;;;;;;;12.31;98.38;97839.98;135271;1281;22537;-64
2023/04/15 06:10:11;;;;;;;;;;;;;;;12.35;97.92;97846.52;135330;1281;22515;-63
2023/04/15 06:13:14;;;;;;;11.90;3.30;;;;;;;12.46;97.80;97849.96;135299;1281;22534;-63
2023/04/15 06:16:16;;;;;;;11.60;3.40;;;;;;;12.54;97.72;97851.09;135332;1281;22539;-63
2023/04/15 06:19:19;;;;;;;11.30;3.10;;;;;;;12.58;98.21;97855.27;135315;1281;22618;-63
2023/04/15 06:22:21;;;;;;;;;;;;;;;12.74;97.68;97855.30;135303;1281;22588;-63
2023/04/15 06:25:24;;;;;;;9.70;3.30;;;;;;;12.87;96.57;97862.49;135305;1281;24245;-63
2023/04/15 06:28:26;;;;;;;14.60;3.80;;;;;;;13.12;94.88;97870.70;135313;1281;22549;-63
2023/04/15 06:31:29;;;;;;;11.60;3.50;;;;;;;13.18;92.78;97879.45;135273;1281;25548;-63
2023/04/15 06:34:31;;;;;;;12.40;3.00;;;;;;;13.16;93.51;97880.19;135311;1281;23615;-63
2023/04/15 06:37:33;;;;;;;;;;;;;;;13.16;92.73;97884.40;135298;1266;22513;-62
2023/04/15 06:40:37;;;;;;;12.00;3.20;;;;;;;13.22;92.15;97890.33;135304;1281;22534;-62
2023/04/15 06:43:39;;;;;;;12.20;3.40;;;;;;;13.26;92.85;97888.45;135303;1281;22549;-63
2023/04/15 06:46:41;;;;;;;10.70;3.00;;;;;;;13.32;93.10;97886.83;135305;1281;22551;-62
2023/04/15 06:49:44;;;;;;;9.50;3.00;;;;;;;13.32;91.98;97892.12;135307;1281;22538;-63
2023/04/15 06:52:46;;;;;;;8.60;3.30;;;;;;;13.38;90.17;97895.48;135301;1281;24256;-63
2023/04/15 06:55:48;;;;;;;;;;;;;;;13.34;90.64;97898.07;135330;1281;22514;-62
2023/04/15 06:58:51;;;;;;;12.10;3.80;;;;;;;13.31;90.35;97897.18;135296;1281;24250;-62
2023/04/15 07:01:53;;;;;;;12.90;3.60;;;;;;;13.35;91.09;97894.38;135276;1281;22542;-62
2023/04/15 07:04:55;;;;;;;12.30;3.50;;;;;;;13.45;90.50;97900.20;135286;1281;25417;-62
2023/04/15 07:07:58;;;;;;;25.60;7.60;;;;;;;13.53;89.94;97906.86;135253;1281;22533;-63
2023/04/15 07:11:00;;;;;;;;;;;;;;;13.48;88.86;97912.35;135312;1281;22621;-63
2023/04/15 07:14:03;;;;;;;12.20;3.30;;;;;;;13.47;88.22;97916.48;135266;1281;22524;-62
2023/04/15 07:17:05;;;;;;;19.80;5.30;;;;;;;13.47;88.93;97924.92;135266;1281;24224;-63
2023/04/15 07:20:07;;;;;;;11.80;3.40;;;;;;;13.66;87.15;97931.05;135287;1281;22564;-63
2023/04/15 07:23:10;;;;;;;18.50;4.90;;;;;;;13.76;85.64;97933.14;135258;1281;22526;-63
2023/04/15 07:26:12;;;;;;;17.50;4.80;;;;;;;13.94;85.18;97931.30;135260;1281;22538;-63
2023/04/15 07:29:15;;;;;;;20.30;5.80;;;;;;;14.11;84.29;97929.52;135297;1281;22534;-63
2023/04/15 07:32:17;;;;;;;;;;;;;;;14.21;83.75;97926.98;135331;1281;25453;-63
2023/04/15 07:35:20;;;;;;;20.80;5.80;;;;;;;14.37;83.18;97919.02;135248;1281;22541;-62
2023/04/15 07:38:23;;;;;;;14.10;3.90;;;;;;;14.59;84.23;97926.91;135281;1281;22579;-63
2023/04/15 07:41:26;;;;;;;10.50;3.20;;;;;;;14.86;80.74;97927.23;135319;1281;22533;-63
2023/04/15 07:44:28;;;;;;;9.00;2.80;;;;;;;14.96;80.63;97925.98;135302;1281;25405;-63
2023/04/15 07:47:31;;;;;;;10.00;2.70;;;;;;;15.24;79.09;97926.37;135299;1281;22586;-63
2023/04/15 07:50:36;;;;;;;12.80;3.80;;;;;;;15.44;77.16;97928.16;135296;1281;24284;-63
2023/04/15 07:53:38;;;;;;;;;;;;;;;15.56;75.86;97928.28;135322;1263;24254;-63
2023/04/15 07:56:40;;;;;;;11.20;3.20;;;;;;;15.66;76.52;97931.07;135279;1281;25424;-63
2023/04/15 07:59:43;;;;;;;;;;;;;;;15.92;76.19;97933.04;135306;1281;22520;-63
2023/04/15 08:02:47;;;;;;;12.00;3.50;;;;;;;16.35;75.44;97930.40;135298;1281;22554;-63
2023/04/15 08:05:49;;;;;;;9.90;3.30;;;;;;;16.87;73.25;97926.78;135317;1281;22636;-64
2023/04/15 08:08:53;;;;;;;;;;;;;;;16.88;69.07;97928.13;135306;1281;22523;-64
2023/04/15 08:11:55;;;;;;;14.50;4.50;;;;;;;16.34;69.39;97931.70;135237;1281;22544;-63
2023/04/15 08:14:58;;;;;;;16.90;4.60;;;;;;;15.96;68.15;97933.44;135276;1281;22548;-63
2023/04/15 08:18:00;;;;;;;;;;;;;;;15.96;71.80;97935.80;135299;1262;22520;-63
2023/04/15 08:21:03;;;;;;;17.10;4.90;;;;;;;16.04;70.67;97935.83;135290;1281;24355;-63
2023/04/15 08:24:05;;;;;;;13.60;4.40;;;;;;;16.05;70.03;97939.80;135287;1281;25449;-63
2023/04/15 08:27:09;;;;;;;;;;;;;;;16.16;69.98;97938.04;135294;1281;22519;-63
2023/04/15 08:30:11;;;;;;;14.70;4.50;;;;;;;16.44;69.21;97936.77;135276;1281;23892;-63
2023/04/15 08:33:14;;;;;;;15.50;4.90;;;;;;;16.71;70.24;97939.52;135262;1281;26634;-63
2023/04/15 08:36:16;;;;;;;;;;;;;;;16.96;68.74;97936.84;135322;1281;22615;-63
2023/04/15 08:39:18;;;;;;;15.70;5.30;;;;;;;17.17;68.40;97933.83;135249;1281;22546;-63
2023/04/15 08:42:21;;;;;;;;;;;;;;;17.57;68.35;97931.33;135316;1281;22513;-65
2023/04/15 08:45:27;;;;;;;19.00;5.80;;;;;;;17.98;64.85;97930.48;135350;1281;22524;-65
2023/04/15 08:48:30;;;;;;;;;;;;;;;18.06;62.64;97931.73;135317;1281;22512;-63
2023/04/15 08:51:33;;;;;;;19.40;6.10;;;;;;;17.93;63.02;97937.37;135298;1281;22560;-63
2023/04/15 08:54:35;;;;;;;20.30;6.40;;;;;;;17.96;62.08;97934.73;135323;1278;22552;-63
2023/04/15 08:57:38;;;;;;;;;;;;;;;17.77;62.05;97935.30;135363;1263;22504;-63
2023/04/15 09:00:41;;;;;;;18.20;5.90;;;;;;;17.77;63.04;97936.56;135268;1281;22537;-64
2023/04/15 09:03:43;;;;;;;16.10;5.40;;;;;;;17.91;62.95;97938.42;135296;1281;22538;-63
2023/04/15 09:06:45;;;;;;;;;;;;;;;18.00;62.39;97936.50;135304;1281;22516;-63
2023/04/15 09:09:48;;;;;;;16.90;6.00;;;;;;;18.07;61.43;97934.85;135288;1281;22534;-63
2023/04/15 09:12:50;;;;;;;18.20;5.90;;;;;;;18.30;62.56;97937.63;135304;1263;24235;-64
2023/04/15 09:15:53;;;;;;;16.30;5.60;;;;;;;18.84;61.80;97934.15;135262;1281;22533;-64
2023/04/15 09:18:55;;;;;;;15.80;4.90;;;;;;;19.05;58.54;97928.36;135286;1281;22531;-63
2023/04/15 09:21:57;;;;;;;;;;;;;;;18.84;57.90;97929.44;135325;1281;22570;-63
2023/04/15 09:25:00;;;;;;;16.60;5.20;;;;;;;18.88;57.91;97926.52;135270;1281;22527;-64
2023/04/15 09:28:03;;;;;;;18.50;5.10;;;;;;;19.19;60.28;97925.92;135310;1281;22560;-63
2023/04/15 09:31:05;;;;;;;14.80;5.10;;;;;;;19.43;58.56;97927.39;135310;1281;22608;-64
2023/04/15 09:34:08;;;;;;;13.00;4.40;;;;;;;19.14;54.60;97933.88;135291;1281;22542;-64
2023/04/15 09:37:12;;;;;;;15.40;4.80;;;;;;;18.75;55.29;97937.58;135323;1281;22527;-63
2023/04/15 09:40:14;;;;;;;16.30;4.90;;;;;;;18.25;54.32;97942.27;135299;1281;25529;-64
2023/04/15 09:43:17;;;;;;;17.00;5.00;;;;;;;17.87;55.17;97944.86;135322;1281;22547;-64
2023/04/15 09:46:19;;;;;;;12.10;4.00;;;;;;;17.82;56.50;97944.47;135312;1281;22531;-64
2023/04/15 09:49:22;;;;;;;13.40;4.30;;;;;;;17.67;54.94;97948.90;135331;1281;24281;-64
2023/04/15 09:52:24;;;;;;;13.60;4.00;;;;;;;17.34;55.46;97948.39;135320;1281;23800;-64
2023/04/15 09:55:28;;;;;;;13.20;4.10;;;;;;;17.14;55.62;97949.66;135261;1281;24330;-63
2023/04/15 09:58:30;;;;;;;12.70;3.70;;;;;;;17.12;56.23;97943.37;135275;1281;23874;-64
2023/04/15 10:01:32;;;;;;;;;;;;;;;17.32;57.97;97945.39;135309;1264;22507;-64
2023/04/15 10:04:35;;;;;;;10.60;3.20;;;;;;;17.57;57.15;97941.54;135307;1281;22643;-64
2023/04/15 10:07:37;;;;;;;11.40;3.50;;;;;;;17.68;56.29;97947.54;135287;1281;22554;-64
2023/04/15 10:10:40;;;;;;;10.90;3.60;;;;;;;17.74;56.31;97945.90;135312;1281;23922;-64
2023/04/15 10:13:42;;;;;;;11.50;3.50;;;;;;;17.81;55.41;97946.89;135300;1281;22551;-64
2023/04/15 10:16:47;;;;;;;;;;;;;;;17.73;54.97;97939.64;135326;1281;22507;-64
2023/04/15 10:19:50;;;;;;;11.10;3.40;;;;;;;17.58;54.64;97939.36;135278;1281;22534;-64
2023/04/15 10:22:52;;;;;;;10.70;3.30;;;;;;;17.53;53.74;97942.54;135276;1281;23894;-64
2023/04/15 10:25:55;;;;;;;;;;;;;;;17.37;54.34;97937.34;135338;1281;22522;-63
2023/04/15 10:28:58;;;;;;;9.20;3.30;;;;;;;17.41;54.36;97936.89;135304;1281;22558;-64
2023/04/15 10:32:00;;;;;;;10.40;2.80;;;;;;;17.43;53.29;97939.52;135297;1281;22538;-64
2023/04/15 10:35:03;;;;;;;9.80;3.00;;;;;;;17.27;53.39;97943.77;135326;1281;22544;-64
2023/04/15 10:38:06;;;;;;;13.90;3.10;;;;;;;17.31;52.79;97937.16;135377;1281;22536;-64
2023/04/15 10:41:08;;;;;;;16.60;4.20;;;;;;;17.22;53.74;97940.63;135349;1281;22669;-64
2023/04/15 10:44:10;;;;;;;;;;;;;;;17.10;53.02;97939.67;135333;1281;24252;-64
2023/04/15 10:47:13;;;;;;;14.00;3.60;;;;;;;17.02;53.43;97944.54;135303;1281;22539;-63
2023/04/15 10:50:15;;;;;;;;;;;;;;;17.03;53.77;97944.93;135252;1281;22543;-63
2023/04/15 10:53:18;;;;;;;;;;;;;;;16.74;53.38;97944.86;135162;1281;22519;-64
2023/04/15 10:56:20;;;;;;;;;;;;;;;16.55;53.59;97944.98;135314;1281;22695;-64
2023/04/15 10:59:22;;;;;;;;;;;;;;;16.50;54.02;97947.60;135289;1281;22523;-63
2023/04/15 11:02:25;;;;;;;;;;;;;;;16.41;53.50;97948.91;135332;1281;22587;-63
2023/04/15 11:05:27;;;;;;;;;;;;;;;16.26;54.52;97951.16;135300;1281;22536;-63
2023/04/15 11:08:29;;;;;;;;;;;;;;;16.32;54.33;97953.77;135336;1281;22524;-63
2023/04/15 11:11:32;;;;;;;;;;;;;;;16.31;54.59;97959.34;135343;1281;22526;-63
2023/04/15 11:14:35;;;;;;;;;;;;;;;16.20;54.82;97958.80;135344;1281;24237;-63
2023/04/15 11:17:37;;;;;;;;;;;;;;;16.16;53.51;97955.39;135334;1281;22522;-65
2023/04/15 11:20:40;;;;;;;;;;;;;;;16.06;53.41;97959.98;135331;1281;22526;-63
2023/04/15 11:23:45;;;;;;;;;;;;;;;15.97;53.94;97960.56;135368;1281;22561;-64
2023/04/15 11:26:48;;;;;;;;;;;;;;;15.90;54.97;97965.44;135354;1281;22508;-64
2023/04/15 11:29:51;;;;;;;;;;;;;;;15.90;55.44;97970.52;135347;1281;22634;-63
2023/04/15 11:32:53;;;;;;;;;;;;;;;15.92;54.99;97969.08;135339;1281;25416;-63
2023/04/15 11:35:55;;;;;;;;;;;;;;;16.09;54.38;97964.79;135293;1281;22507;-63
2023/04/15 11:38:58;;;;;;;;;;;;;;;16.03;53.20;97967.51;135312;1281;22593;-63
2023/04/15 11:42:00;;;;;;;;;;;;;;;15.93;52.90;97968.45;135356;1281;22531;-63
2023/04/15 11:45:03;;;;;;;;;;;;;;;15.95;53.93;97966.87;135315;1281;22504;-63
2023/04/15 11:48:05;;;;;;;;;;;;;;;16.23;54.27;97966.34;135333;1281;22586;-63
2023/04/15 11:51:07;;;;;;;;;;;;;;;16.43;53.65;97965.90;135366;1281;24287;-64
2023/04/15 11:54:10;;;;;;;;;;;;;;;16.72;52.79;97962.05;135371;1281;22581;-63
2023/04/15 11:57:12;;;;;;;;;;;;;;;16.94;52.45;97963.38;135375;1281;22491;-63
2023/04/15 12:00:15;;;;;;;;;;;;;;;17.17;50.91;97960.36;135371;1281;22504;-63
2023/04/15 12:03:18;;;;;;;;;;;;;;;17.21;49.68;97957.27;135214;1281;207387;-63
2023/04/15 12:06:20;;;;;;;;;;;;;;;17.18;49.37;97959.17;135385;1281;22511;-63
2023/04/15 12:09:24;;;;;;;;;;;;;;;17.18;48.98;97962.38;135383;1281;25360;-63
2023/04/15 12:12:28;;;;;;;;;;;;;;;17.35;49.66;97960.08;135374;1281;22525;-63
2023/04/15 12:15:30;;;;;;;;;;;;;;;17.85;50.20;97962.72;135322;1281;24397;-63
2023/04/15 12:18:33;;;;;;;;;;;;;;;18.72;48.22;97968.27;135371;1281;22518;-64
2023/04/15 12:21:35;;;;;;;;;;;;;;;19.11;46.36;97965.08;135389;1281;22693;-65
2023/04/15 12:24:37;;;;;;;;;;;;;;;19.23;46.33;97960.38;135158;1281;22528;-64
2023/04/15 12:27:40;;;;;;;;;;;;;;;19.05;45.77;97961.38;135201;1282;22577;-63
2023/04/15 12:30:42;;;;;;;;;;;;;;;18.57;44.95;97963.07;135092;1282;22523;-63
2023/04/15 12:33:45;;;;;;;;;;;;;;;18.27;45.02;97968.09;135120;1282;22514;-62
2023/04/15 12:36:47;;;;;;;;;;;;;;;17.90;46.29;97968.45;135109;1282;22624;-62
2023/04/15 12:39:49;;;;;;;;;;;;;;;17.92;46.82;97968.36;135108;1282;22517;-62
2023/04/15 12:42:52;;;;;;;;;;;;;;;17.93;46.79;97967.27;135150;1277;22534;-63
2023/04/15 12:45:55;;;;;;;;;;;;;;;17.78;46.31;97965.38;135114;1282;22513;-62
2023/04/15 12:48:57;;;;;;;;;;;;;;;17.56;45.37;97969.23;135137;1282;25232;-63
2023/04/15 12:52:00;;;;;;;;;;;;;;;17.59;45.40;97967.69;135106;1282;22512;-63
2023/04/15 12:55:02;;;;;;;;;;;;;;;17.26;44.85;97972.33;135140;1282;22524;-62
2023/04/15 12:58:04;;;;;;;;;;;;;;;17.20;45.72;97969.42;135015;1282;22521;-62
2023/04/15 13:01:07;;;;;;;;;;;;;;;17.27;46.35;97974.33;135193;1282;22501;-62
2023/04/15 13:04:10;;;;;;;;;;;;;;;17.25;45.85;97979.28;135119;1282;22530;-62
2023/04/15 13:07:14;;;;;;;;;;;;;;;17.15;46.11;97980.91;135158;1282;22545;-63
2023/04/15 13:10:16;;;;;;;;;;;;;;;17.02;46.28;97984.96;135108;1282;22514;-62
2023/04/15 13:13:19;;;;;;;;;;;;;;;16.86;45.90;97990.83;135163;1272;22538;-63
2023/04/15 13:16:22;;;;;;;;;;;;;;;16.72;47.16;97995.93;135149;1282;22531;-63
2023/04/15 13:19:24;;;;;;;;;;;;;;;16.61;47.52;97993.95;135161;1282;22563;-62
2023/04/15 13:22:26;;;;;;;;;;;;;;;16.66;47.62;97998.60;135135;1282;22521;-62
2023/04/15 13:25:29;;;;;;;;;;;;;;;16.57;47.64;97997.79;135129;1282;22505;-63
2023/04/15 13:28:31;;;;;;;;;;;;;;;16.37;48.53;98000.21;135149;1282;22515;-62
2023/04/15 13:31:33;;;;;;;;;;;;;;;16.47;48.81;98001.02;135524;1280;22521;-62
2023/04/15 13:34:36;;;;;;;;;;;;;;;16.64;49.34;98000.36;135495;1278;22579;-63
2023/04/15 13:37:38;;;;;;;;;;;;;;;16.74;48.41;98005.25;135479;1280;22508;-62
2023/04/15 13:40:41;;;;;;;;;;;;;;;16.55;49.03;98010.96;135457;1280;23890;-62
2023/04/15 13:43:45;;;;;;;;;;;;;;;16.30;50.10;98014.33;135496;1280;22521;-63
2023/04/15 13:46:47;;;;;;;;;;;;;;;15.96;54.91;98027.94;135525;1280;22560;-62
2023/04/15 13:49:51;;;;;;;;;;;;;;;15.31;61.37;98032.84;135487;1280;22510;-62
2023/04/15 13:52:54;;;;;;;;;;;;;;;14.92;65.06;98035.89;135486;1280;22592;-62
2023/04/15 13:55:56;;;;;;;;;;;;;;;14.83;64.09;98042.61;135502;1280;22586;-62
2023/04/15 13:59:01;;;;;;;;;;;;;;;14.66;65.12;98050.02;135489;1280;22507;-63
2023/04/15 14:02:03;;;;;;;;;;;;;;;14.81;64.61;98053.40;135432;1280;25308;-63
2023/04/15 14:05:05;;;;;;;;;;;;;;;14.69;64.30;98048.67;135490;1262;22773;-63
2023/04/15 14:08:08;;;;;;;;;;;;;;;14.65;65.37;98051.53;135543;1280;23636;-62
2023/04/15 14:11:10;;;;;;;;;;;;;;;14.75;64.88;98049.20;135471;1280;22556;-64
2023/04/15 14:14:13;;;;;;;;;;;;;;;14.62;62.31;98059.46;135583;1273;22519;-64
2023/04/15 14:17:15;;;;;;;;;;;;;;;14.71;63.82;98053.98;135525;1279;22515;-64
2023/04/15 14:20:17;;;;;;;;;;;;;;;15.36;61.75;98054.02;135537;1276;22602;-64
2023/04/15 14:23:20;;;;;;;;;;;;;;;15.95;58.37;98052.14;135562;1278;22500;-64
2023/04/15 14:26:22;;;;;;;;;;;;;;;16.06;57.56;98046.58;135503;1279;22554;-64
2023/04/15 14:29:25;;;;;;;;;;;;;;;16.06;56.93;98049.94;135539;1279;22500;-63